sensor_id;sensor_type;location;lat;lon;timestamp;P1;durP1;ratioP1;P2;durP2;ratioP2
4389;SDS011;2209;48.982;8.406;2023-09-18T00:01:03;3.10;;;2.80;;
4389;SDS011;2209;48.982;8.406;2023-09-18T00:03:26;3.07;;;2.63;;
4389;SDS011;2209;48.982;8.406;2023-09-18T00:05:49;3.60;;;3.10;;
4389;SDS011;2209;48.982;8.406;2023-09-18T00:08:12;7.50;;;3.57;;
4389;SDS011;2209;48.982;8.406;2023-09-18T00:10:34;3.47;;;2.97;;
4389;SDS011;2209;48.982;8.406;2023-09-18T00:12:56;3.20;;;2.97;;
4389;SDS011;2209;48.982;8.406;2023-09-18T00:15:18;4.40;;;4.00;;
4389;SDS011;2209;48.982;8.406;2023-09-18T00:17:40;7.43;;;3.03;;
4389;SDS011;2209;48.982;8.406;2023-09-18T00:20:03;3.40;;;3.10;;
4389;SDS011;2209;48.982;8.406;2023-09-18T00:22:28;3.37;;;3.17;;
4389;SDS011;2209;48.982;8.406;2023-09-18T00:24:50;4.90;;;3.50;;
4389;SDS011;2209;48.982;8.406;2023-09-18T00:27:12;6.97;;;3.40;;
4389;SDS011;2209;48.982;8.406;2023-09-18T00:29:36;4.13;;;3.47;;
4389;SDS011;2209;48.982;8.406;2023-09-18T00:31:58;4.20;;;3.13;;
4389;SDS011;2209;48.982;8.406;2023-09-18T00:34:20;3.73;;;3.43;;
4389;SDS011;2209;48.982;8.406;2023-09-18T00:36:42;6.73;;;3.30;;
4389;SDS011;2209;48.982;8.406;2023-09-18T00:39:06;5.63;;;3.73;;
4389;SDS011;2209;48.982;8.406;2023-09-18T00:41:28;6.33;;;3.03;;
4389;SDS011;2209;48.982;8.406;2023-09-18T00:43:51;6.17;;;3.07;;
4389;SDS011;2209;48.982;8.406;2023-09-18T00:46:13;4.40;;;2.77;;
4389;SDS011;2209;48.982;8.406;2023-09-18T00:48:35;3.80;;;3.27;;
4389;SDS011;2209;48.982;8.406;2023-09-18T00:50:57;4.10;;;3.70;;
4389;SDS011;2209;48.982;8.406;2023-09-18T00:53:20;6.63;;;4.17;;
4389;SDS011;2209;48.982;8.406;2023-09-18T00:55:46;4.27;;;3.83;;
4389;SDS011;2209;48.982;8.406;2023-09-18T00:58:09;6.17;;;3.93;;
4389;SDS011;2209;48.982;8.406;2023-09-18T01:00:32;5.80;;;3.63;;
4389;SDS011;2209;48.982;8.406;2023-09-18T01:02:54;3.90;;;3.60;;
4389;SDS011;2209;48.982;8.406;2023-09-18T01:05:16;3.67;;;3.37;;
4389;SDS011;2209;48.982;8.406;2023-09-18T01:07:40;4.27;;;3.87;;
4389;SDS011;2209;48.982;8.406;2023-09-18T01:10:02;4.30;;;3.90;;
4389;SDS011;2209;48.982;8.406;2023-09-18T01:12:30;10.23;;;4.07;;
4389;SDS011;2209;48.982;8.406;2023-09-18T01:15:02;4.13;;;3.10;;
4389;SDS011;2209;48.982;8.406;2023-09-18T01:17:29;3.73;;;3.37;;
4389;SDS011;2209;48.982;8.406;2023-09-18T01:19:52;4.17;;;3.73;;
4389;SDS011;2209;48.982;8.406;2023-09-18T01:22:15;9.10;;;4.57;;
4389;SDS011;2209;48.982;8.406;2023-09-18T01:24:39;4.70;;;3.37;;
4389;SDS011;2209;48.982;8.406;2023-09-18T01:27:03;4.10;;;3.80;;
4389;SDS011;2209;48.982;8.406;2023-09-18T01:29:25;4.07;;;3.70;;
4389;SDS011;2209;48.982;8.406;2023-09-18T01:31:48;7.20;;;4.23;;
4389;SDS011;2209;48.982;8.406;2023-09-18T01:34:12;6.17;;;3.87;;
4389;SDS011;2209;48.982;8.406;2023-09-18T01:36:34;15.57;;;3.77;;
4389;SDS011;2209;48.982;8.406;2023-09-18T01:38:56;6.27;;;3.87;;
4389;SDS011;2209;48.982;8.406;2023-09-18T01:41:20;5.03;;;3.17;;
4389;SDS011;2209;48.982;8.406;2023-09-18T01:43:42;5.40;;;3.77;;
4389;SDS011;2209;48.982;8.406;2023-09-18T01:46:06;4.70;;;3.57;;
4389;SDS011;2209;48.982;8.406;2023-09-18T01:48:28;8.13;;;3.27;;
4389;SDS011;2209;48.982;8.406;2023-09-18T01:50:50;4.03;;;3.73;;
4389;SDS011;2209;48.982;8.406;2023-09-18T01:53:12;3.80;;;3.50;;
4389;SDS011;2209;48.982;8.406;2023-09-18T01:55:34;7.20;;;3.43;;
4389;SDS011;2209;48.982;8.406;2023-09-18T01:57:58;3.60;;;3.30;;
4389;SDS011;2209;48.982;8.406;2023-09-18T02:00:20;5.53;;;2.80;;
4389;SDS011;2209;48.982;8.406;2023-09-18T02:02:42;9.50;;;3.33;;
4389;SDS011;2209;48.982;8.406;2023-09-18T02:05:04;5.77;;;3.20;;
4389;SDS011;2209;48.982;8.406;2023-09-18T02:07:27;3.23;;;2.93;;
4389;SDS011;2209;48.982;8.406;2023-09-18T02:09:49;5.77;;;3.57;;
4389;SDS011;2209;48.982;8.406;2023-09-18T02:12:11;7.13;;;3.30;;
4389;SDS011;2209;48.982;8.406;2023-09-18T02:14:38;6.30;;;4.07;;
4389;SDS011;2209;48.982;8.406;2023-09-18T02:17:01;5.30;;;3.67;;
4389;SDS011;2209;48.982;8.406;2023-09-18T02:19:23;3.70;;;3.27;;
4389;SDS011;2209;48.982;8.406;2023-09-18T02:21:46;4.67;;;4.00;;
4389;SDS011;2209;48.982;8.406;2023-09-18T02:24:08;3.93;;;3.50;;
4389;SDS011;2209;48.982;8.406;2023-09-18T02:26:30;6.00;;;3.20;;
4389;SDS011;2209;48.982;8.406;2023-09-18T02:28:53;6.70;;;3.77;;
4389;SDS011;2209;48.982;8.406;2023-09-18T02:31:17;6.13;;;4.20;;
4389;SDS011;2209;48.982;8.406;2023-09-18T02:33:39;5.17;;;4.20;;
4389;SDS011;2209;48.982;8.406;2023-09-18T02:36:02;5.67;;;3.63;;
4389;SDS011;2209;48.982;8.406;2023-09-18T02:38:24;7.30;;;4.30;;
4389;SDS011;2209;48.982;8.406;2023-09-18T02:40:47;6.17;;;3.90;;
4389;SDS011;2209;48.982;8.406;2023-09-18T02:43:09;4.77;;;3.83;;
4389;SDS011;2209;48.982;8.406;2023-09-18T02:45:31;6.47;;;3.60;;
4389;SDS011;2209;48.982;8.406;2023-09-18T02:47:54;10.63;;;3.67;;
4389;SDS011;2209;48.982;8.406;2023-09-18T02:50:16;3.63;;;3.40;;
4389;SDS011;2209;48.982;8.406;2023-09-18T02:52:39;5.80;;;3.20;;
4389;SDS011;2209;48.982;8.406;2023-09-18T02:55:01;4.57;;;2.90;;
4389;SDS011;2209;48.982;8.406;2023-09-18T02:57:23;4.10;;;3.20;;
4389;SDS011;2209;48.982;8.406;2023-09-18T02:59:46;5.90;;;3.70;;
4389;SDS011;2209;48.982;8.406;2023-09-18T03:02:08;4.60;;;3.10;;
4389;SDS011;2209;48.982;8.406;2023-09-18T03:04:31;8.50;;;3.50;;
4389;SDS011;2209;48.982;8.406;2023-09-18T03:06:53;5.27;;;3.30;;
4389;SDS011;2209;48.982;8.406;2023-09-18T03:09:15;6.60;;;3.87;;
4389;SDS011;2209;48.982;8.406;2023-09-18T03:11:54;8.23;;;3.70;;
4389;SDS011;2209;48.982;8.406;2023-09-18T03:14:16;4.30;;;3.57;;
4389;SDS011;2209;48.982;8.406;2023-09-18T03:16:38;8.57;;;3.60;;
4389;SDS011;2209;48.982;8.406;2023-09-18T03:19:01;9.27;;;4.53;;
4389;SDS011;2209;48.982;8.406;2023-09-18T03:21:23;8.10;;;3.97;;
4389;SDS011;2209;48.982;8.406;2023-09-18T03:23:46;3.90;;;3.53;;
4389;SDS011;2209;48.982;8.406;2023-09-18T03:26:08;7.07;;;2.90;;
4389;SDS011;2209;48.982;8.406;2023-09-18T03:28:31;7.80;;;4.30;;
4389;SDS011;2209;48.982;8.406;2023-09-18T03:30:53;9.97;;;4.20;;
4389;SDS011;2209;48.982;8.406;2023-09-18T03:33:16;6.43;;;3.40;;
4389;SDS011;2209;48.982;8.406;2023-09-18T03:35:44;7.37;;;3.40;;
4389;SDS011;2209;48.982;8.406;2023-09-18T03:38:08;6.20;;;3.97;;
4389;SDS011;2209;48.982;8.406;2023-09-18T03:40:30;8.00;;;3.73;;
4389;SDS011;2209;48.982;8.406;2023-09-18T03:42:52;4.50;;;3.70;;
4389;SDS011;2209;48.982;8.406;2023-09-18T03:45:15;11.23;;;3.67;;
4389;SDS011;2209;48.982;8.406;2023-09-18T03:47:39;12.93;;;3.83;;
4389;SDS011;2209;48.982;8.406;2023-09-18T03:50:03;5.30;;;3.67;;
4389;SDS011;2209;48.982;8.406;2023-09-18T03:52:25;7.10;;;3.73;;
4389;SDS011;2209;48.982;8.406;2023-09-18T03:54:48;6.30;;;3.73;;
4389;SDS011;2209;48.982;8.406;2023-09-18T03:57:10;6.20;;;3.17;;
4389;SDS011;2209;48.982;8.406;2023-09-18T03:59:32;11.47;;;4.07;;
4389;SDS011;2209;48.982;8.406;2023-09-18T04:01:55;7.03;;;3.33;;
4389;SDS011;2209;48.982;8.406;2023-09-18T04:04:18;6.57;;;3.30;;
4389;SDS011;2209;48.982;8.406;2023-09-18T04:06:40;6.10;;;3.40;;
4389;SDS011;2209;48.982;8.406;2023-09-18T04:09:03;5.20;;;3.37;;
4389;SDS011;2209;48.982;8.406;2023-09-18T04:11:25;4.77;;;3.30;;
4389;SDS011;2209;48.982;8.406;2023-09-18T04:13:47;5.10;;;2.90;;
4389;SDS011;2209;48.982;8.406;2023-09-18T04:16:10;5.93;;;3.50;;
4389;SDS011;2209;48.982;8.406;2023-09-18T04:18:38;5.73;;;3.10;;
4389;SDS011;2209;48.982;8.406;2023-09-18T04:21:00;9.40;;;3.17;;
4389;SDS011;2209;48.982;8.406;2023-09-18T04:23:23;4.93;;;3.50;;
4389;SDS011;2209;48.982;8.406;2023-09-18T04:25:46;8.47;;;4.20;;
4389;SDS011;2209;48.982;8.406;2023-09-18T04:28:09;9.40;;;3.50;;
4389;SDS011;2209;48.982;8.406;2023-09-18T04:30:31;7.40;;;3.60;;
4389;SDS011;2209;48.982;8.406;2023-09-18T04:32:53;12.33;;;3.60;;
4389;SDS011;2209;48.982;8.406;2023-09-18T04:35:16;3.73;;;3.10;;
4389;SDS011;2209;48.982;8.406;2023-09-18T04:37:38;9.70;;;3.50;;
4389;SDS011;2209;48.982;8.406;2023-09-18T04:40:00;4.80;;;3.10;;
4389;SDS011;2209;48.982;8.406;2023-09-18T04:42:24;10.23;;;3.47;;
4389;SDS011;2209;48.982;8.406;2023-09-18T04:44:47;9.47;;;3.27;;
4389;SDS011;2209;48.982;8.406;2023-09-18T04:47:09;7.60;;;2.90;;
4389;SDS011;2209;48.982;8.406;2023-09-18T04:49:31;7.37;;;2.97;;
4389;SDS011;2209;48.982;8.406;2023-09-18T04:51:55;9.63;;;2.80;;
4389;SDS011;2209;48.982;8.406;2023-09-18T04:54:17;10.30;;;2.93;;
4389;SDS011;2209;48.982;8.406;2023-09-18T04:56:39;8.40;;;3.30;;
4389;SDS011;2209;48.982;8.406;2023-09-18T04:59:01;6.93;;;3.00;;
4389;SDS011;2209;48.982;8.406;2023-09-18T05:01:24;4.87;;;2.30;;
4389;SDS011;2209;48.982;8.406;2023-09-18T05:03:46;5.10;;;2.60;;
4389;SDS011;2209;48.982;8.406;2023-09-18T05:06:08;4.70;;;2.90;;
4389;SDS011;2209;48.982;8.406;2023-09-18T05:08:32;4.50;;;3.00;;
4389;SDS011;2209;48.982;8.406;2023-09-18T05:10:54;7.07;;;3.43;;
4389;SDS011;2209;48.982;8.406;2023-09-18T05:13:17;8.20;;;3.97;;
4389;SDS011;2209;48.982;8.406;2023-09-18T05:15:39;8.70;;;3.93;;
4389;SDS011;2209;48.982;8.406;2023-09-18T05:18:02;15.93;;;3.60;;
4389;SDS011;2209;48.982;8.406;2023-09-18T05:20:24;6.90;;;3.00;;
4389;SDS011;2209;48.982;8.406;2023-09-18T05:22:48;5.77;;;2.83;;
4389;SDS011;2209;48.982;8.406;2023-09-18T05:25:11;4.73;;;3.10;;
4389;SDS011;2209;48.982;8.406;2023-09-18T05:27:35;4.93;;;3.20;;
4389;SDS011;2209;48.982;8.406;2023-09-18T05:30:04;7.40;;;3.17;;
4389;SDS011;2209;48.982;8.406;2023-09-18T05:32:28;7.27;;;3.00;;
4389;SDS011;2209;48.982;8.406;2023-09-18T05:34:51;5.70;;;2.90;;
4389;SDS011;2209;48.982;8.406;2023-09-18T05:37:13;6.50;;;3.57;;
4389;SDS011;2209;48.982;8.406;2023-09-18T05:39:35;10.13;;;3.60;;
4389;SDS011;2209;48.982;8.406;2023-09-18T05:41:59;5.27;;;2.70;;
4389;SDS011;2209;48.982;8.406;2023-09-18T05:44:21;11.13;;;3.43;;
4389;SDS011;2209;48.982;8.406;2023-09-18T05:46:43;5.27;;;2.27;;
4389;SDS011;2209;48.982;8.406;2023-09-18T05:49:05;6.93;;;3.10;;
4389;SDS011;2209;48.982;8.406;2023-09-18T05:51:27;4.67;;;2.60;;
4389;SDS011;2209;48.982;8.406;2023-09-18T05:53:50;3.63;;;2.10;;
4389;SDS011;2209;48.982;8.406;2023-09-18T05:56:12;7.83;;;2.50;;
4389;SDS011;2209;48.982;8.406;2023-09-18T05:58:36;5.00;;;2.50;;
4389;SDS011;2209;48.982;8.406;2023-09-18T06:00:58;8.83;;;2.73;;
4389;SDS011;2209;48.982;8.406;2023-09-18T06:03:20;3.50;;;2.37;;
4389;SDS011;2209;48.982;8.406;2023-09-18T06:05:42;4.10;;;2.67;;
4389;SDS011;2209;48.982;8.406;2023-09-18T06:08:04;7.53;;;2.77;;
4389;SDS011;2209;48.982;8.406;2023-09-18T06:10:27;7.90;;;3.87;;
4389;SDS011;2209;48.982;8.406;2023-09-18T06:12:49;6.43;;;2.77;;
4389;SDS011;2209;48.982;8.406;2023-09-18T06:15:12;4.93;;;2.80;;
4389;SDS011;2209;48.982;8.406;2023-09-18T06:17:35;8.50;;;3.90;;
4389;SDS011;2209;48.982;8.406;2023-09-18T06:19:57;5.57;;;2.93;;
4389;SDS011;2209;48.982;8.406;2023-09-18T06:22:19;8.03;;;3.30;;
4389;SDS011;2209;48.982;8.406;2023-09-18T06:24:41;9.80;;;3.50;;
4389;SDS011;2209;48.982;8.406;2023-09-18T06:27:04;3.30;;;2.77;;
4389;SDS011;2209;48.982;8.406;2023-09-18T06:29:26;9.27;;;2.57;;
4389;SDS011;2209;48.982;8.406;2023-09-18T06:31:50;5.83;;;2.60;;
4389;SDS011;2209;48.982;8.406;2023-09-18T06:34:12;6.20;;;2.70;;
4389;SDS011;2209;48.982;8.406;2023-09-18T06:36:34;13.57;;;3.73;;
4389;SDS011;2209;48.982;8.406;2023-09-18T06:38:57;9.50;;;4.37;;
4389;SDS011;2209;48.982;8.406;2023-09-18T06:41:19;4.30;;;2.57;;
4389;SDS011;2209;48.982;8.406;2023-09-18T06:43:41;9.93;;;2.90;;
4389;SDS011;2209;48.982;8.406;2023-09-18T06:46:03;8.67;;;3.10;;
4389;SDS011;2209;48.982;8.406;2023-09-18T06:48:29;4.87;;;2.83;;
4389;SDS011;2209;48.982;8.406;2023-09-18T06:50:52;5.83;;;3.10;;
4389;SDS011;2209;48.982;8.406;2023-09-18T06:53:14;11.67;;;3.50;;
4389;SDS011;2209;48.982;8.406;2023-09-18T06:55:37;4.57;;;3.00;;
4389;SDS011;2209;48.982;8.406;2023-09-18T06:57:59;10.27;;;3.47;;
4389;SDS011;2209;48.982;8.406;2023-09-18T07:00:21;11.03;;;3.27;;
4389;SDS011;2209;48.982;8.406;2023-09-18T07:02:43;7.90;;;2.30;;
4389;SDS011;2209;48.982;8.406;2023-09-18T07:05:07;10.17;;;2.97;;
4389;SDS011;2209;48.982;8.406;2023-09-18T07:07:29;8.60;;;3.33;;
4389;SDS011;2209;48.982;8.406;2023-09-18T07:09:52;6.00;;;2.80;;
4389;SDS011;2209;48.982;8.406;2023-09-18T07:12:14;7.53;;;2.43;;
4389;SDS011;2209;48.982;8.406;2023-09-18T07:14:39;4.30;;;2.40;;
4389;SDS011;2209;48.982;8.406;2023-09-18T07:17:02;6.00;;;2.77;;
4389;SDS011;2209;48.982;8.406;2023-09-18T07:19:24;5.70;;;2.40;;
4389;SDS011;2209;48.982;8.406;2023-09-18T07:21:48;5.77;;;1.97;;
4389;SDS011;2209;48.982;8.406;2023-09-18T07:24:10;6.47;;;2.00;;
4389;SDS011;2209;48.982;8.406;2023-09-18T07:26:36;3.33;;;2.63;;
4389;SDS011;2209;48.982;8.406;2023-09-18T07:28:58;2.60;;;1.70;;
4389;SDS011;2209;48.982;8.406;2023-09-18T07:31:21;4.60;;;2.20;;
4389;SDS011;2209;48.982;8.406;2023-09-18T07:33:43;8.10;;;2.77;;
4389;SDS011;2209;48.982;8.406;2023-09-18T07:36:06;7.70;;;2.20;;
4389;SDS011;2209;48.982;8.406;2023-09-18T07:38:29;1.63;;;1.53;;
4389;SDS011;2209;48.982;8.406;2023-09-18T07:40:51;2.20;;;1.80;;
4389;SDS011;2209;48.982;8.406;2023-09-18T07:43:13;2.90;;;2.13;;
4389;SDS011;2209;48.982;8.406;2023-09-18T07:45:37;3.40;;;1.87;;
4389;SDS011;2209;48.982;8.406;2023-09-18T07:47:59;7.13;;;1.70;;
4389;SDS011;2209;48.982;8.406;2023-09-18T07:50:22;6.30;;;1.90;;
4389;SDS011;2209;48.982;8.406;2023-09-18T07:52:44;5.53;;;1.97;;
4389;SDS011;2209;48.982;8.406;2023-09-18T07:55:08;3.17;;;1.63;;
4389;SDS011;2209;48.982;8.406;2023-09-18T07:57:31;7.73;;;1.33;;
4389;SDS011;2209;48.982;8.406;2023-09-18T07:59:54;2.17;;;1.47;;
4389;SDS011;2209;48.982;8.406;2023-09-18T08:02:17;2.70;;;1.17;;
4389;SDS011;2209;48.982;8.406;2023-09-18T08:04:39;3.27;;;2.10;;
4389;SDS011;2209;48.982;8.406;2023-09-18T08:07:03;4.73;;;1.77;;
4389;SDS011;2209;48.982;8.406;2023-09-18T08:09:26;2.20;;;1.40;;
4389;SDS011;2209;48.982;8.406;2023-09-18T08:11:51;2.50;;;1.00;;
4389;SDS011;2209;48.982;8.406;2023-09-18T08:14:15;2.63;;;1.50;;
4389;SDS011;2209;48.982;8.406;2023-09-18T08:16:38;1.40;;;1.20;;
4389;SDS011;2209;48.982;8.406;2023-09-18T08:19:00;3.53;;;1.50;;
4389;SDS011;2209;48.982;8.406;2023-09-18T08:21:23;2.10;;;1.20;;
4389;SDS011;2209;48.982;8.406;2023-09-18T08:23:45;5.17;;;1.50;;
4389;SDS011;2209;48.982;8.406;2023-09-18T08:26:07;5.10;;;2.07;;
4389;SDS011;2209;48.982;8.406;2023-09-18T08:28:30;2.03;;;1.63;;
4389;SDS011;2209;48.982;8.406;2023-09-18T08:30:53;5.20;;;2.00;;
4389;SDS011;2209;48.982;8.406;2023-09-18T08:33:16;1.67;;;1.50;;
4389;SDS011;2209;48.982;8.406;2023-09-18T08:35:38;3.07;;;1.63;;
4389;SDS011;2209;48.982;8.406;2023-09-18T08:38:00;5.00;;;1.53;;
4389;SDS011;2209;48.982;8.406;2023-09-18T08:40:23;1.43;;;1.27;;
4389;SDS011;2209;48.982;8.406;2023-09-18T08:42:46;2.43;;;1.20;;
4389;SDS011;2209;48.982;8.406;2023-09-18T08:45:10;1.20;;;1.10;;
4389;SDS011;2209;48.982;8.406;2023-09-18T08:47:39;2.00;;;1.30;;
4389;SDS011;2209;48.982;8.406;2023-09-18T08:50:02;2.03;;;1.43;;
4389;SDS011;2209;48.982;8.406;2023-09-18T08:52:24;2.70;;;1.27;;
4389;SDS011;2209;48.982;8.406;2023-09-18T08:54:48;3.77;;;1.60;;
4389;SDS011;2209;48.982;8.406;2023-09-18T08:57:11;4.53;;;1.63;;
4389;SDS011;2209;48.982;8.406;2023-09-18T08:59:33;1.77;;;1.33;;
4389;SDS011;2209;48.982;8.406;2023-09-18T09:01:58;2.30;;;1.33;;
4389;SDS011;2209;48.982;8.406;2023-09-18T09:04:20;5.30;;;1.47;;
4389;SDS011;2209;48.982;8.406;2023-09-18T09:06:43;1.90;;;1.10;;
4389;SDS011;2209;48.982;8.406;2023-09-18T09:09:05;1.30;;;1.20;;
4389;SDS011;2209;48.982;8.406;2023-09-18T09:11:28;5.03;;;2.57;;
4389;SDS011;2209;48.982;8.406;2023-09-18T09:13:54;5.73;;;1.63;;
4389;SDS011;2209;48.982;8.406;2023-09-18T09:16:31;1.90;;;1.20;;
4389;SDS011;2209;48.982;8.406;2023-09-18T09:18:55;3.37;;;1.50;;
4389;SDS011;2209;48.982;8.406;2023-09-18T09:21:17;3.43;;;1.30;;
4389;SDS011;2209;48.982;8.406;2023-09-18T09:23:44;1.73;;;1.20;;
4389;SDS011;2209;48.982;8.406;2023-09-18T09:26:13;2.80;;;1.50;;
4389;SDS011;2209;48.982;8.406;2023-09-18T09:28:36;2.90;;;1.50;;
4389;SDS011;2209;48.982;8.406;2023-09-18T09:31:01;2.77;;;1.43;;
4389;SDS011;2209;48.982;8.406;2023-09-18T09:33:23;4.27;;;1.60;;
4389;SDS011;2209;48.982;8.406;2023-09-18T09:35:47;2.23;;;1.30;;
4389;SDS011;2209;48.982;8.406;2023-09-18T09:38:09;6.17;;;1.73;;
4389;SDS011;2209;48.982;8.406;2023-09-18T09:40:34;2.67;;;1.10;;
4389;SDS011;2209;48.982;8.406;2023-09-18T09:42:59;1.80;;;1.70;;
4389;SDS011;2209;48.982;8.406;2023-09-18T09:45:22;1.60;;;1.40;;
4389;SDS011;2209;48.982;8.406;2023-09-18T09:47:44;3.90;;;1.27;;
4389;SDS011;2209;48.982;8.406;2023-09-18T09:50:07;2.90;;;1.50;;
4389;SDS011;2209;48.982;8.406;2023-09-18T09:52:33;1.70;;;0.97;;
4389;SDS011;2209;48.982;8.406;2023-09-18T09:54:56;3.00;;;1.33;;
4389;SDS011;2209;48.982;8.406;2023-09-18T09:57:19;2.23;;;1.23;;
4389;SDS011;2209;48.982;8.406;2023-09-18T09:59:41;1.93;;;1.40;;
4389;SDS011;2209;48.982;8.406;2023-09-18T10:02:05;1.30;;;1.03;;
4389;SDS011;2209;48.982;8.406;2023-09-18T10:04:32;1.80;;;1.13;;
4389;SDS011;2209;48.982;8.406;2023-09-18T10:06:58;4.23;;;1.30;;
4389;SDS011;2209;48.982;8.406;2023-09-18T10:09:30;2.40;;;1.20;;
4389;SDS011;2209;48.982;8.406;2023-09-18T10:11:56;2.93;;;1.50;;
4389;SDS011;2209;48.982;8.406;2023-09-18T10:14:20;4.17;;;1.23;;
4389;SDS011;2209;48.982;8.406;2023-09-18T10:16:53;1.47;;;1.23;;
4389;SDS011;2209;48.982;8.406;2023-09-18T10:19:18;2.30;;;1.03;;
4389;SDS011;2209;48.982;8.406;2023-09-18T10:21:49;1.20;;;1.10;;
4389;SDS011;2209;48.982;8.406;2023-09-18T10:24:22;2.63;;;1.10;;
4389;SDS011;2209;48.982;8.406;2023-09-18T10:26:50;1.93;;;1.50;;
4389;SDS011;2209;48.982;8.406;2023-09-18T10:29:16;2.53;;;1.10;;
4389;SDS011;2209;48.982;8.406;2023-09-18T10:31:41;4.70;;;1.67;;
4389;SDS011;2209;48.982;8.406;2023-09-18T10:34:06;2.50;;;1.07;;
4389;SDS011;2209;48.982;8.406;2023-09-18T10:36:29;1.43;;;1.27;;
4389;SDS011;2209;48.982;8.406;2023-09-18T10:38:52;3.23;;;1.37;;
4389;SDS011;2209;48.982;8.406;2023-09-18T10:41:15;1.53;;;1.20;;
4389;SDS011;2209;48.982;8.406;2023-09-18T10:43:40;2.17;;;1.20;;
4389;SDS011;2209;48.982;8.406;2023-09-18T10:46:02;1.90;;;1.27;;
4389;SDS011;2209;48.982;8.406;2023-09-18T10:48:25;3.17;;;1.30;;
4389;SDS011;2209;48.982;8.406;2023-09-18T10:50:48;7.07;;;1.57;;
4389;SDS011;2209;48.982;8.406;2023-09-18T10:53:11;2.60;;;1.67;;
4389;SDS011;2209;48.982;8.406;2023-09-18T10:55:34;2.20;;;1.27;;
4389;SDS011;2209;48.982;8.406;2023-09-18T10:57:57;1.77;;;1.20;;
4389;SDS011;2209;48.982;8.406;2023-09-18T11:00:24;1.90;;;1.33;;
4389;SDS011;2209;48.982;8.406;2023-09-18T11:02:49;1.20;;;1.10;;
4389;SDS011;2209;48.982;8.406;2023-09-18T11:05:12;1.63;;;1.00;;
4389;SDS011;2209;48.982;8.406;2023-09-18T11:07:35;1.67;;;1.37;;
4389;SDS011;2209;48.982;8.406;2023-09-18T11:09:57;2.80;;;1.10;;
4389;SDS011;2209;48.982;8.406;2023-09-18T11:12:19;3.70;;;1.10;;
4389;SDS011;2209;48.982;8.406;2023-09-18T11:15:02;2.03;;;1.10;;
4389;SDS011;2209;48.982;8.406;2023-09-18T11:17:33;4.77;;;1.10;;
4389;SDS011;2209;48.982;8.406;2023-09-18T11:20:06;3.53;;;1.10;;
4389;SDS011;2209;48.982;8.406;2023-09-18T11:22:32;3.57;;;1.37;;
4389;SDS011;2209;48.982;8.406;2023-09-18T11:24:54;1.20;;;1.10;;
4389;SDS011;2209;48.982;8.406;2023-09-18T11:28:12;1.10;;;1.00;;
4389;SDS011;2209;48.982;8.406;2023-09-18T11:30:36;1.83;;;1.10;;
4389;SDS011;2209;48.982;8.406;2023-09-18T11:32:59;2.60;;;1.30;;
4389;SDS011;2209;48.982;8.406;2023-09-18T11:35:23;1.70;;;1.30;;
4389;SDS011;2209;48.982;8.406;2023-09-18T11:37:47;1.53;;;1.40;;
4389;SDS011;2209;48.982;8.406;2023-09-18T11:40:28;2.23;;;1.70;;
4389;SDS011;2209;48.982;8.406;2023-09-18T11:45:48;1.83;;;1.20;;
4389;SDS011;2209;48.982;8.406;2023-09-18T11:48:10;1.47;;;1.10;;
4389;SDS011;2209;48.982;8.406;2023-09-18T11:50:34;2.60;;;1.40;;
4389;SDS011;2209;48.982;8.406;2023-09-18T11:52:57;3.33;;;1.30;;
4389;SDS011;2209;48.982;8.406;2023-09-18T11:55:20;2.53;;;1.40;;
4389;SDS011;2209;48.982;8.406;2023-09-18T11:57:42;2.60;;;1.27;;
4389;SDS011;2209;48.982;8.406;2023-09-18T12:00:18;1.30;;;1.20;;
4389;SDS011;2209;48.982;8.406;2023-09-18T12:02:45;1.60;;;1.50;;
4389;SDS011;2209;48.982;8.406;2023-09-18T12:05:10;2.83;;;1.20;;
4389;SDS011;2209;48.982;8.406;2023-09-18T12:07:35;2.63;;;1.23;;
4389;SDS011;2209;48.982;8.406;2023-09-18T12:09:57;2.17;;;1.20;;
4389;SDS011;2209;48.982;8.406;2023-09-18T12:12:19;1.93;;;1.00;;
4389;SDS011;2209;48.982;8.406;2023-09-18T12:14:43;1.77;;;1.13;;
4389;SDS011;2209;48.982;8.406;2023-09-18T12:17:06;1.87;;;1.00;;
4389;SDS011;2209;48.982;8.406;2023-09-18T12:19:29;1.10;;;1.00;;
4389;SDS011;2209;48.982;8.406;2023-09-18T12:21:52;2.27;;;1.23;;
4389;SDS011;2209;48.982;8.406;2023-09-18T12:24:14;1.50;;;1.40;;
4389;SDS011;2209;48.982;8.406;2023-09-18T12:26:37;1.20;;;1.10;;
4389;SDS011;2209;48.982;8.406;2023-09-18T12:28:59;2.10;;;1.40;;
4389;SDS011;2209;48.982;8.406;2023-09-18T12:31:21;1.60;;;1.20;;
4389;SDS011;2209;48.982;8.406;2023-09-18T12:33:45;3.73;;;0.90;;
4389;SDS011;2209;48.982;8.406;2023-09-18T12:36:08;4.50;;;1.30;;
4389;SDS011;2209;48.982;8.406;2023-09-18T12:38:31;2.60;;;1.00;;
4389;SDS011;2209;48.982;8.406;2023-09-18T12:40:53;5.33;;;1.40;;
4389;SDS011;2209;48.982;8.406;2023-09-18T12:43:16;3.90;;;1.47;;
4389;SDS011;2209;48.982;8.406;2023-09-18T12:45:38;2.63;;;1.30;;
4389;SDS011;2209;48.982;8.406;2023-09-18T12:48:01;3.00;;;1.17;;
4389;SDS011;2209;48.982;8.406;2023-09-18T12:50:25;1.50;;;1.00;;
4389;SDS011;2209;48.982;8.406;2023-09-18T12:52:47;1.00;;;0.90;;
4389;SDS011;2209;48.982;8.406;2023-09-18T12:55:20;1.20;;;1.10;;
4389;SDS011;2209;48.982;8.406;2023-09-18T12:57:44;1.90;;;1.20;;
4389;SDS011;2209;48.982;8.406;2023-09-18T13:00:09;1.97;;;1.37;;
4389;SDS011;2209;48.982;8.406;2023-09-18T13:02:32;1.77;;;1.20;;
4389;SDS011;2209;48.982;8.406;2023-09-18T13:04:55;2.20;;;1.13;;
4389;SDS011;2209;48.982;8.406;2023-09-18T13:07:20;1.00;;;0.90;;
4389;SDS011;2209;48.982;8.406;2023-09-18T13:09:57;4.90;;;1.40;;
4389;SDS011;2209;48.982;8.406;2023-09-18T13:12:19;2.17;;;1.20;;
4389;SDS011;2209;48.982;8.406;2023-09-18T13:14:57;6.53;;;1.53;;
4389;SDS011;2209;48.982;8.406;2023-09-18T13:17:20;2.50;;;1.47;;
4389;SDS011;2209;48.982;8.406;2023-09-18T13:19:42;1.93;;;1.40;;
4389;SDS011;2209;48.982;8.406;2023-09-18T13:22:04;2.53;;;1.23;;
4389;SDS011;2209;48.982;8.406;2023-09-18T13:24:28;2.30;;;2.00;;
4389;SDS011;2209;48.982;8.406;2023-09-18T13:26:52;3.20;;;1.20;;
4389;SDS011;2209;48.982;8.406;2023-09-18T13:29:14;1.30;;;1.20;;
4389;SDS011;2209;48.982;8.406;2023-09-18T13:31:36;1.47;;;1.37;;
4389;SDS011;2209;48.982;8.406;2023-09-18T13:33:59;3.93;;;1.40;;
4389;SDS011;2209;48.982;8.406;2023-09-18T13:36:21;1.70;;;1.30;;
4389;SDS011;2209;48.982;8.406;2023-09-18T13:38:43;2.50;;;1.23;;
4389;SDS011;2209;48.982;8.406;2023-09-18T13:41:06;1.93;;;1.77;;
4389;SDS011;2209;48.982;8.406;2023-09-18T13:43:28;5.87;;;1.40;;
4389;SDS011;2209;48.982;8.406;2023-09-18T13:45:52;2.13;;;1.30;;
4389;SDS011;2209;48.982;8.406;2023-09-18T13:48:16;3.40;;;1.30;;
4389;SDS011;2209;48.982;8.406;2023-09-18T13:50:38;1.53;;;1.13;;
4389;SDS011;2209;48.982;8.406;2023-09-18T13:53:00;1.50;;;1.10;;
4389;SDS011;2209;48.982;8.406;2023-09-18T13:55:24;11.10;;;2.10;;
4389;SDS011;2209;48.982;8.406;2023-09-18T13:57:47;7.47;;;1.17;;
4389;SDS011;2209;48.982;8.406;2023-09-18T14:00:10;3.83;;;1.53;;
4389;SDS011;2209;48.982;8.406;2023-09-18T14:02:34;2.90;;;1.10;;
4389;SDS011;2209;48.982;8.406;2023-09-18T14:04:56;1.13;;;1.10;;
4389;SDS011;2209;48.982;8.406;2023-09-18T14:07:18;2.97;;;1.50;;
4389;SDS011;2209;48.982;8.406;2023-09-18T14:09:41;2.80;;;1.20;;
4389;SDS011;2209;48.982;8.406;2023-09-18T14:12:03;4.43;;;1.30;;
4389;SDS011;2209;48.982;8.406;2023-09-18T14:14:28;2.90;;;1.20;;
4389;SDS011;2209;48.982;8.406;2023-09-18T14:16:52;2.60;;;1.30;;
4389;SDS011;2209;48.982;8.406;2023-09-18T14:19:15;2.03;;;1.50;;
4389;SDS011;2209;48.982;8.406;2023-09-18T14:21:37;3.13;;;1.60;;
4389;SDS011;2209;48.982;8.406;2023-09-18T14:23:59;1.83;;;1.70;;
4389;SDS011;2209;48.982;8.406;2023-09-18T14:26:21;2.03;;;1.20;;
4389;SDS011;2209;48.982;8.406;2023-09-18T14:28:43;2.00;;;1.47;;
4389;SDS011;2209;48.982;8.406;2023-09-18T14:31:08;2.60;;;1.40;;
4389;SDS011;2209;48.982;8.406;2023-09-18T14:33:30;1.60;;;1.50;;
4389;SDS011;2209;48.982;8.406;2023-09-18T14:35:52;1.50;;;1.40;;
4389;SDS011;2209;48.982;8.406;2023-09-18T14:38:14;3.10;;;1.30;;
4389;SDS011;2209;48.982;8.406;2023-09-18T14:40:36;1.40;;;1.23;;
4389;SDS011;2209;48.982;8.406;2023-09-18T14:43:02;2.70;;;1.13;;
4389;SDS011;2209;48.982;8.406;2023-09-18T14:45:25;2.50;;;1.30;;
4389;SDS011;2209;48.982;8.406;2023-09-18T14:47:49;1.27;;;1.17;;
4389;SDS011;2209;48.982;8.406;2023-09-18T14:50:11;4.50;;;2.67;;
4389;SDS011;2209;48.982;8.406;2023-09-18T14:52:34;4.37;;;1.47;;
4389;SDS011;2209;48.982;8.406;2023-09-18T14:54:56;3.13;;;1.60;;